createdAt,value
2023-01-17T00:02:23.968Z,92.73
2023-01-17T00:05:09.500Z,92.93
2023-01-17T00:07:55.465Z,92.36
2023-01-17T00:10:27.562Z,92.21
2023-01-17T00:12:57.644Z,93.06
2023-01-17T00:15:27.034Z,92.68
2023-01-17T00:17:55.567Z,93.50
2023-01-17T00:20:44.328Z,95.96
2023-01-17T00:23:33.733Z,94.95
2023-01-17T00:26:06.890Z,96.76
2023-01-17T00:28:35.664Z,96.76
2023-01-17T00:31:03.702Z,96.18
2023-01-17T00:33:31.108Z,97.10
2023-01-17T00:35:59.557Z,94.22
2023-01-17T00:38:27.896Z,94.98
2023-01-17T00:40:55.013Z,94.22
2023-01-17T00:43:42.318Z,94.62
2023-01-17T00:46:27.776Z,96.29
2023-01-17T00:49:13.481Z,94.39
2023-01-17T00:51:59.213Z,94.09
2023-01-17T00:54:45.028Z,95.97
2023-01-17T00:57:31.064Z,95.68
2023-01-17T01:00:18.029Z,92.52
2023-01-17T01:03:03.507Z,91.45
2023-01-17T01:05:48.961Z,93.03
2023-01-17T01:08:36.893Z,93.58
2023-01-17T01:11:27.292Z,92.15
2023-01-17T01:14:13.460Z,89.99
2023-01-17T01:17:00.536Z,93.05
2023-01-17T01:19:46.066Z,93.37
2023-01-17T01:22:31.602Z,91.89
2023-01-17T01:25:16.984Z,91.08
2023-01-17T01:28:02.512Z,91.21
2023-01-17T01:30:48.388Z,91.42
2023-01-17T01:33:20.757Z,93.59
2023-01-17T01:35:51.167Z,92.46
2023-01-17T01:38:19.746Z,92.87
2023-01-17T01:40:50.879Z,92.93
2023-01-17T01:43:21.249Z,90.79
2023-01-17T01:45:54.168Z,95.24
2023-01-17T01:48:35.049Z,100.00
2023-01-17T01:51:07.382Z,100.00
2023-01-17T01:53:39.948Z,100.00
2023-01-17T01:56:13.500Z,97.74
2023-01-17T01:58:45.214Z,96.66
2023-01-17T02:01:14.261Z,95.46
2023-01-17T02:03:44.786Z,95.94
2023-01-17T02:06:27.150Z,97.29
2023-01-17T02:08:57.325Z,97.97
2023-01-17T02:11:25.877Z,99.71
2023-01-17T02:13:54.179Z,100.00
2023-01-17T02:16:35.241Z,100.00
2023-01-17T02:19:24.319Z,100.00
2023-01-17T02:22:07.693Z,100.00
2023-01-17T02:25:14.227Z,100.00
2023-01-17T02:28:00.115Z,100.00
2023-01-17T02:30:36.877Z,100.00
2023-01-17T02:33:19.093Z,100.00
2023-01-17T02:35:58.197Z,100.00
2023-01-17T02:38:35.426Z,100.00
2023-01-17T02:41:07.989Z,100.00
2023-01-17T02:43:38.558Z,100.00
2023-01-17T02:46:09.875Z,100.00
2023-01-17T02:48:39.892Z,100.00
2023-01-17T02:51:41.607Z,100.00
2023-01-17T02:54:27.822Z,100.00
2023-01-17T02:57:11.946Z,100.00
2023-01-17T02:59:46.993Z,100.00
2023-01-17T03:02:23.290Z,100.00
2023-01-17T03:04:57.241Z,100.00
2023-01-17T03:07:28.601Z,100.00
2023-01-17T03:10:03.723Z,100.00
2023-01-17T03:12:36.772Z,100.00
2023-01-17T03:15:05.676Z,100.00
2023-01-17T03:17:35.364Z,100.00
2023-01-17T03:20:03.682Z,100.00
2023-01-17T03:22:32.001Z,100.00
2023-01-17T03:25:00.389Z,100.00
2023-01-17T03:27:28.729Z,100.00
2023-01-17T03:29:57.459Z,100.00
2023-01-17T03:32:25.772Z,100.00
2023-01-17T03:34:55.760Z,100.00
2023-01-17T03:37:24.052Z,100.00
2023-01-17T03:39:52.388Z,100.00
2023-01-17T03:42:20.624Z,100.00
2023-01-17T03:44:48.960Z,100.00
2023-01-17T03:47:17.265Z,100.00
2023-01-17T03:49:45.477Z,100.00
2023-01-17T03:52:15.425Z,100.00
2023-01-17T03:54:43.651Z,100.00
2023-01-17T03:57:12.085Z,100.00
2023-01-17T03:59:40.399Z,100.00
2023-01-17T04:02:08.785Z,100.00
2023-01-17T04:04:37.202Z,100.00
2023-01-17T04:07:05.772Z,100.00
2023-01-17T04:09:35.661Z,100.00
2023-01-17T04:12:04.632Z,100.00
2023-01-17T04:14:32.964Z,100.00
2023-01-17T04:17:04.225Z,100.00
2023-01-17T04:19:35.385Z,100.00
2023-01-17T04:22:03.662Z,100.00
2023-01-17T04:24:32.019Z,100.00
2023-01-17T04:27:01.879Z,100.00
2023-01-17T04:29:30.162Z,100.00
2023-01-17T04:31:58.502Z,100.00
2023-01-17T04:34:26.830Z,100.00
2023-01-17T04:36:55.194Z,100.00
2023-01-17T04:39:23.565Z,100.00
2023-01-17T04:41:51.845Z,100.00
2023-01-17T04:44:21.574Z,100.00
2023-01-17T04:46:49.950Z,100.00
2023-01-17T04:49:18.319Z,100.00
2023-01-17T04:51:46.785Z,100.00
2023-01-17T04:54:15.227Z,100.00
2023-01-17T04:56:44.270Z,100.00
2023-01-17T04:59:12.610Z,100.00
2023-01-17T05:01:42.946Z,100.00
2023-01-17T05:04:11.305Z,100.00
2023-01-17T05:06:39.563Z,100.00
2023-01-17T05:09:08.061Z,100.00
2023-01-17T05:11:36.382Z,100.00
2023-01-17T05:14:04.730Z,100.00
2023-01-17T05:16:32.995Z,100.00
2023-01-17T05:19:03.038Z,100.00
2023-01-17T05:21:31.670Z,100.00
2023-01-17T05:24:00.061Z,100.00
2023-01-17T05:26:30.764Z,100.00
2023-01-17T05:28:59.097Z,100.00
2023-01-17T05:31:27.397Z,100.00
2023-01-17T05:33:55.800Z,100.00
2023-01-17T05:36:25.583Z,100.00
2023-01-17T05:38:53.967Z,100.00
2023-01-17T05:41:22.412Z,100.00
2023-01-17T05:43:50.741Z,100.00
2023-01-17T05:46:19.354Z,100.00
2023-01-17T05:48:47.677Z,100.00
2023-01-17T05:51:18.466Z,100.00
2023-01-17T05:53:48.252Z,100.00
2023-01-17T05:56:16.541Z,100.00
2023-01-17T05:58:47.525Z,100.00
2023-01-17T06:01:15.931Z,100.00
2023-01-17T06:03:44.293Z,100.00
2023-01-17T06:06:12.649Z,100.00
2023-01-17T06:08:40.953Z,100.00
2023-01-17T06:11:10.645Z,100.00
2023-01-17T06:13:38.906Z,100.00
2023-01-17T06:16:07.646Z,100.00
2023-01-17T06:18:36.066Z,100.00
2023-01-17T06:21:04.473Z,100.00
2023-01-17T06:23:32.958Z,100.00
2023-01-17T06:26:04.670Z,100.00
2023-01-17T06:28:34.394Z,100.00
2023-01-17T06:31:07.430Z,100.00
2023-01-17T06:33:36.265Z,100.00
2023-01-17T06:36:04.836Z,100.00
2023-01-17T06:38:33.156Z,100.00
2023-01-17T06:41:05.825Z,100.00
2023-01-17T06:43:35.592Z,100.00
2023-01-17T06:46:03.859Z,100.00
2023-01-17T06:48:32.089Z,100.00
2023-01-17T06:51:00.408Z,100.00
2023-01-17T06:53:28.697Z,100.00
2023-01-17T06:55:57.684Z,100.00
2023-01-17T06:58:26.249Z,100.00
2023-01-17T07:00:56.019Z,100.00
2023-01-17T07:03:26.368Z,100.00
2023-01-17T07:05:55.056Z,100.00
2023-01-17T07:08:23.387Z,100.00
2023-01-17T07:10:51.833Z,100.00
2023-01-17T07:13:20.138Z,100.00
2023-01-17T07:15:48.450Z,100.00
2023-01-17T07:18:20.797Z,100.00
2023-01-17T07:20:49.171Z,100.00
2023-01-17T07:23:17.486Z,100.00
2023-01-17T07:25:45.925Z,100.00
2023-01-17T07:28:14.128Z,100.00
2023-01-17T07:30:42.483Z,100.00
2023-01-17T07:33:10.962Z,100.00
2023-01-17T07:35:40.831Z,100.00
2023-01-17T07:38:11.679Z,100.00
2023-01-17T07:40:42.398Z,100.00
2023-01-17T07:43:14.737Z,100.00
2023-01-17T07:45:44.066Z,100.00
2023-01-17T07:48:13.337Z,100.00
2023-01-17T07:50:43.074Z,100.00
2023-01-17T07:53:12.533Z,100.00
2023-01-17T07:55:40.834Z,100.00
2023-01-17T07:58:11.418Z,100.00
2023-01-17T08:00:39.734Z,100.00
2023-01-17T08:03:07.969Z,100.00
2023-01-17T08:05:39.112Z,100.00
2023-01-17T08:08:08.956Z,100.00
2023-01-17T08:10:37.303Z,100.00
2023-01-17T08:13:05.761Z,100.00
2023-01-17T08:15:34.090Z,100.00
2023-01-17T08:18:02.412Z,100.00
2023-01-17T08:20:30.773Z,100.00
2023-01-17T08:22:59.123Z,100.00
2023-01-17T08:25:28.996Z,100.00
2023-01-17T08:27:58.936Z,100.00
2023-01-17T08:30:27.632Z,100.00
2023-01-17T08:32:56.479Z,100.00
2023-01-17T08:35:24.815Z,100.00
2023-01-17T08:37:56.534Z,100.00
2023-01-17T08:40:25.490Z,100.00
2023-01-17T08:42:59.647Z,100.00
2023-01-17T08:45:31.544Z,100.00
2023-01-17T08:48:00.441Z,100.00
2023-01-17T08:50:28.917Z,100.00
2023-01-17T08:53:01.209Z,100.00
2023-01-17T08:55:30.051Z,100.00
2023-01-17T08:57:59.739Z,100.00
2023-01-17T09:00:28.693Z,100.00
2023-01-17T09:02:56.952Z,100.00
2023-01-17T09:05:25.166Z,100.00
2023-01-17T09:07:53.466Z,100.00
2023-01-17T09:10:24.589Z,100.00
2023-01-17T09:12:53.033Z,100.00
2023-01-17T09:15:22.881Z,100.00
2023-01-17T09:17:51.233Z,100.00
2023-01-17T09:20:19.614Z,100.00
2023-01-17T09:22:47.882Z,100.00
2023-01-17T09:25:16.292Z,100.00
2023-01-17T09:28:04.216Z,100.00
2023-01-17T09:30:33.826Z,100.00
2023-01-17T09:33:02.138Z,100.00
2023-01-17T09:35:30.478Z,100.00
2023-01-17T09:37:58.717Z,100.00
2023-01-17T09:40:27.233Z,100.00
2023-01-17T09:43:01.445Z,100.00
2023-01-17T09:45:33.274Z,100.00
2023-01-17T09:48:07.843Z,100.00
2023-01-17T09:50:45.343Z,100.00
2023-01-17T09:53:17.071Z,100.00
2023-01-17T09:55:52.354Z,100.00
2023-01-17T09:58:24.111Z,100.00
2023-01-17T10:01:03.806Z,100.00
2023-01-17T10:03:44.976Z,100.00
2023-01-17T10:06:37.490Z,100.00
2023-01-17T10:09:32.143Z,100.00
2023-01-17T10:12:15.520Z,100.00
2023-01-17T10:14:57.252Z,100.00
2023-01-17T10:17:40.955Z,100.00
2023-01-17T10:20:25.929Z,97.04
2023-01-17T10:23:11.546Z,95.06
2023-01-17T10:25:44.664Z,96.37
2023-01-17T10:28:17.693Z,98.49
2023-01-17T10:30:51.260Z,91.06
2023-01-17T10:33:22.782Z,91.10
2023-01-17T10:36:00.891Z,91.04
2023-01-17T10:38:35.219Z,89.07
2023-01-17T10:41:08.988Z,84.19
2023-01-17T10:43:49.770Z,76.45
2023-01-17T10:46:23.354Z,76.29
2023-01-17T10:48:54.091Z,76.62
2023-01-17T10:51:43.987Z,74.71
2023-01-17T10:54:27.557Z,76.59
2023-01-17T10:56:56.038Z,74.79
2023-01-17T10:59:30.807Z,73.08
2023-01-17T11:02:00.162Z,72.95
2023-01-17T11:04:36.831Z,74.25
2023-01-17T11:07:14.534Z,73.09
2023-01-17T11:09:44.910Z,74.10
2023-01-17T11:12:30.318Z,71.57
2023-01-17T11:15:03.823Z,70.28
2023-01-17T11:17:33.701Z,68.13
2023-01-17T11:20:10.470Z,68.39
2023-01-17T11:22:40.574Z,69.22
2023-01-17T11:25:22.197Z,70.86
2023-01-17T11:28:01.264Z,69.99
2023-01-17T11:30:30.099Z,71.45
2023-01-17T11:33:00.053Z,72.51
2023-01-17T11:35:30.548Z,71.92
2023-01-17T11:38:06.484Z,71.24
2023-01-17T11:40:39.077Z,70.25
2023-01-17T11:43:20.135Z,69.48
2023-01-17T11:46:02.079Z,70.51
2023-01-17T11:48:37.151Z,69.82
2023-01-17T11:51:12.547Z,69.19
2023-01-17T11:53:48.248Z,70.01
2023-01-17T11:56:30.268Z,68.54
2023-01-17T11:59:31.527Z,63.72
2023-01-17T12:02:39.116Z,62.67
2023-01-17T12:05:27.318Z,62.49
2023-01-17T12:08:05.099Z,58.84
2023-01-17T12:10:44.675Z,63.61
2023-01-17T12:13:42.091Z,65.38
2023-01-17T12:16:32.890Z,64.62
2023-01-17T12:19:33.893Z,62.81
2023-01-17T12:22:17.559Z,65.04
2023-01-17T12:25:11.392Z,62.24
2023-01-17T12:27:50.905Z,63.40
2023-01-17T12:30:45.119Z,64.65
2023-01-17T12:33:23.272Z,63.50
2023-01-17T12:35:55.029Z,64.08
2023-01-17T12:38:32.969Z,63.98
2023-01-17T12:41:06.505Z,63.18
2023-01-17T12:43:40.845Z,64.48
2023-01-17T12:46:21.004Z,64.72
2023-01-17T12:48:53.074Z,65.10
2023-01-17T12:51:27.887Z,64.64
2023-01-17T12:54:03.266Z,65.36
2023-01-17T12:56:36.959Z,66.24
2023-01-17T12:59:16.654Z,67.16
2023-01-17T13:01:57.450Z,67.69
2023-01-17T13:04:31.141Z,67.80
2023-01-17T13:07:09.505Z,67.63
2023-01-17T13:09:45.409Z,68.17
2023-01-17T13:12:16.518Z,68.24
2023-01-17T13:14:47.156Z,68.94
2023-01-17T13:17:32.852Z,70.36
2023-01-17T13:20:07.614Z,70.81
2023-01-17T13:22:38.997Z,71.02
2023-01-17T13:25:24.518Z,71.14
2023-01-17T13:28:04.118Z,71.41
2023-01-17T13:30:51.729Z,71.82
2023-01-17T13:33:45.194Z,73.02
2023-01-17T13:36:31.103Z,72.78
2023-01-17T13:39:33.257Z,73.68
2023-01-17T13:42:13.203Z,72.89
2023-01-17T13:44:41.446Z,71.86
2023-01-17T13:47:40.592Z,72.38
2023-01-17T13:50:41.799Z,71.70
2023-01-17T13:53:56.434Z,72.16
2023-01-17T13:56:28.223Z,72.58
2023-01-17T13:58:59.031Z,72.86
2023-01-17T14:01:55.630Z,74.14
2023-01-17T14:04:26.789Z,73.14
2023-01-17T14:07:03.977Z,74.71
2023-01-17T14:09:42.752Z,75.90
2023-01-17T14:12:32.096Z,76.27
2023-01-17T14:15:02.831Z,77.25
2023-01-17T14:17:59.807Z,78.83
2023-01-17T14:20:51.219Z,78.16
2023-01-17T14:23:41.807Z,77.87
2023-01-17T14:26:33.109Z,78.66
2023-01-17T14:29:39.591Z,79.58
2023-01-17T14:32:12.694Z,80.14
2023-01-17T14:34:41.160Z,80.18
2023-01-17T14:37:21.718Z,80.84
2023-01-17T14:39:52.341Z,81.80
2023-01-17T14:42:23.857Z,82.14
2023-01-17T14:45:02.197Z,82.09
2023-01-17T14:47:35.112Z,83.45
2023-01-17T14:50:20.946Z,84.17
2023-01-17T14:53:08.303Z,85.07
2023-01-17T14:55:36.773Z,87.12
2023-01-17T14:58:05.557Z,89.00
2023-01-17T15:00:40.789Z,89.83
2023-01-17T15:03:12.364Z,90.68
2023-01-17T15:05:43.303Z,92.35
2023-01-17T15:08:16.552Z,95.92
2023-01-17T15:10:51.765Z,96.63
2023-01-17T15:13:35.400Z,96.63
2023-01-17T15:16:22.731Z,95.92
2023-01-17T15:18:52.006Z,97.80
2023-01-17T15:21:22.656Z,96.61
2023-01-17T15:23:55.785Z,97.50
2023-01-17T15:26:27.446Z,100.00
2023-01-17T15:29:04.182Z,100.00
2023-01-17T15:31:44.301Z,100.00
2023-01-17T15:34:23.752Z,100.00
2023-01-17T15:36:52.769Z,100.00
2023-01-17T15:39:24.777Z,100.00
2023-01-17T15:41:54.656Z,100.00
2023-01-17T15:44:47.543Z,100.00
2023-01-17T15:47:29.804Z,100.00
2023-01-17T15:49:58.831Z,100.00
2023-01-17T15:52:27.577Z,100.00
2023-01-17T15:55:00.576Z,100.00
2023-01-17T15:57:30.873Z,100.00
2023-01-17T16:00:04.472Z,100.00
2023-01-17T16:02:36.387Z,100.00
2023-01-17T16:05:21.898Z,100.00
2023-01-17T16:07:51.638Z,100.00
2023-01-17T16:10:23.149Z,100.00
2023-01-17T16:12:53.734Z,100.00
2023-01-17T16:15:23.745Z,100.00
2023-01-17T16:17:54.721Z,100.00
2023-01-17T16:20:27.557Z,100.00
2023-01-17T16:22:56.212Z,100.00
2023-01-17T16:25:32.421Z,100.00
2023-01-17T16:28:01.523Z,100.00
2023-01-17T16:30:30.928Z,100.00
2023-01-17T16:32:59.349Z,100.00
2023-01-17T16:35:30.448Z,100.00
2023-01-17T16:38:00.851Z,100.00
2023-01-17T16:40:32.318Z,100.00
2023-01-17T16:43:02.006Z,100.00
2023-01-17T16:45:30.551Z,100.00
2023-01-17T16:47:58.795Z,100.00
2023-01-17T16:50:27.115Z,100.00
2023-01-17T16:52:56.319Z,100.00
2023-01-17T16:55:26.684Z,100.00
2023-01-17T16:57:58.396Z,100.00
2023-01-17T17:00:28.082Z,100.00
2023-01-17T17:02:56.408Z,100.00
2023-01-17T17:05:26.138Z,100.00
2023-01-17T17:07:54.913Z,100.00
2023-01-17T17:10:25.389Z,100.00
2023-01-17T17:12:53.836Z,100.00
2023-01-17T17:15:23.902Z,100.00
2023-01-17T17:17:52.643Z,100.00
2023-01-17T17:20:21.218Z,100.00
2023-01-17T17:22:52.252Z,100.00
2023-01-17T17:25:20.842Z,100.00
2023-01-17T17:27:49.281Z,100.00
2023-01-17T17:30:18.275Z,100.00
2023-01-17T17:32:48.701Z,100.00
2023-01-17T17:35:17.172Z,100.00
2023-01-17T17:37:45.680Z,100.00
2023-01-17T17:40:14.249Z,100.00
2023-01-17T17:42:43.688Z,100.00
2023-01-17T17:45:12.794Z,100.00
2023-01-17T17:47:41.095Z,100.00
2023-01-17T17:50:13.357Z,100.00
2023-01-17T17:52:44.254Z,100.00
2023-01-17T17:55:13.276Z,100.00
2023-01-17T17:57:41.686Z,100.00
2023-01-17T18:00:11.147Z,100.00
2023-01-17T18:02:39.465Z,100.00
2023-01-17T18:05:08.619Z,100.00
2023-01-17T18:07:38.398Z,100.00
2023-01-17T18:10:08.061Z,100.00
2023-01-17T18:12:36.539Z,100.00
2023-01-17T18:15:05.045Z,100.00
2023-01-17T18:17:33.696Z,100.00
2023-01-17T18:20:02.091Z,100.00
2023-01-17T18:22:30.474Z,100.00
2023-01-17T18:25:00.204Z,100.00
2023-01-17T18:27:28.554Z,100.00
2023-01-17T18:29:56.877Z,100.00
2023-01-17T18:32:25.309Z,100.00
2023-01-17T18:34:54.092Z,100.00
2023-01-17T18:37:23.194Z,100.00
2023-01-17T18:39:51.709Z,100.00
2023-01-17T18:42:23.422Z,100.00
2023-01-17T18:44:53.013Z,100.00
2023-01-17T18:47:21.269Z,100.00
2023-01-17T18:49:53.911Z,100.00
2023-01-17T18:52:22.329Z,100.00
2023-01-17T18:54:50.823Z,100.00
2023-01-17T18:57:21.180Z,100.00
2023-01-17T18:59:49.519Z,100.00
2023-01-17T19:02:18.227Z,100.00
2023-01-17T19:04:46.471Z,100.00
2023-01-17T19:07:14.912Z,100.00
2023-01-17T19:09:44.282Z,100.00
2023-01-17T19:12:12.564Z,100.00
2023-01-17T19:14:42.212Z,100.00
2023-01-17T19:17:10.552Z,100.00
2023-01-17T19:19:38.824Z,100.00
2023-01-17T19:22:07.211Z,100.00
2023-01-17T19:24:37.898Z,100.00
2023-01-17T19:27:07.429Z,100.00
2023-01-17T19:29:35.730Z,100.00
2023-01-17T19:32:05.461Z,100.00
2023-01-17T19:34:34.013Z,100.00
2023-01-17T19:37:02.652Z,100.00
2023-01-17T19:39:31.317Z,100.00
2023-01-17T19:41:59.655Z,100.00
2023-01-17T19:44:28.255Z,100.00
2023-01-17T19:46:57.440Z,100.00
2023-01-17T19:49:27.143Z,100.00
2023-01-17T19:51:55.559Z,100.00
2023-01-17T19:54:24.098Z,100.00
2023-01-17T19:56:52.381Z,100.00
2023-01-17T19:59:20.719Z,100.00
2023-01-17T20:01:49.354Z,100.00
2023-01-17T20:04:18.791Z,100.00
2023-01-17T20:06:48.547Z,100.00
2023-01-17T20:09:16.861Z,100.00
2023-01-17T20:11:45.639Z,100.00
2023-01-17T20:14:16.679Z,100.00
2023-01-17T20:16:47.649Z,100.00
2023-01-17T20:19:16.109Z,100.00
2023-01-17T20:21:44.371Z,100.00
2023-01-17T20:24:14.926Z,100.00
2023-01-17T20:26:44.180Z,100.00
2023-01-17T20:29:15.035Z,100.00
2023-01-17T20:31:44.539Z,100.00
2023-01-17T20:34:16.389Z,100.00
2023-01-17T20:36:44.657Z,100.00
2023-01-17T20:39:15.983Z,100.00
2023-01-17T20:41:45.779Z,100.00
2023-01-17T20:44:15.399Z,100.00
2023-01-17T20:46:44.016Z,100.00
2023-01-17T20:49:15.654Z,100.00
2023-01-17T20:51:45.296Z,100.00
2023-01-17T20:54:16.760Z,100.00
2023-01-17T20:56:47.438Z,100.00
2023-01-17T20:59:18.184Z,100.00
2023-01-17T21:01:46.755Z,100.00
2023-01-17T21:04:15.732Z,100.00
2023-01-17T21:06:45.112Z,100.00
2023-01-17T21:09:17.375Z,100.00
2023-01-17T21:11:46.043Z,100.00
2023-01-17T21:14:14.673Z,100.00
2023-01-17T21:16:43.433Z,100.00
2023-01-17T21:19:15.550Z,100.00
2023-01-17T21:21:43.904Z,100.00
2023-01-17T21:24:16.448Z,100.00
2023-01-17T21:26:46.312Z,100.00
2023-01-17T21:29:16.287Z,100.00
2023-01-17T21:31:45.419Z,100.00
2023-01-17T21:34:14.826Z,100.00
2023-01-17T21:36:43.960Z,100.00
2023-01-17T21:39:15.833Z,100.00
2023-01-17T21:41:48.180Z,100.00
2023-01-17T21:44:20.589Z,100.00
2023-01-17T21:46:53.587Z,100.00
2023-01-17T21:49:24.175Z,100.00
2023-01-17T21:52:09.787Z,100.00
2023-01-17T21:54:55.774Z,100.00
2023-01-17T21:57:51.305Z,100.00
2023-01-17T22:00:20.076Z,100.00
2023-01-17T22:02:49.618Z,100.00
2023-01-17T22:05:19.356Z,100.00
2023-01-17T22:08:06.152Z,100.00
2023-01-17T22:10:44.670Z,100.00
2023-01-17T22:13:15.650Z,100.00
2023-01-17T22:15:44.105Z,100.00
2023-01-17T22:18:12.833Z,100.00
2023-01-17T22:20:41.997Z,100.00
2023-01-17T22:23:11.647Z,100.00
2023-01-17T22:25:39.928Z,100.00
2023-01-17T22:28:08.194Z,100.00
2023-01-17T22:30:38.196Z,100.00
2023-01-17T22:33:06.616Z,100.00
2023-01-17T22:35:35.039Z,100.00
2023-01-17T22:38:03.398Z,100.00
2023-01-17T22:40:32.801Z,100.00
2023-01-17T22:43:01.169Z,100.00
2023-01-17T22:45:29.352Z,100.00
2023-01-17T22:47:59.037Z,100.00
2023-01-17T22:50:27.352Z,100.00
2023-01-17T22:52:55.983Z,100.00
2023-01-17T22:55:24.466Z,100.00
2023-01-17T22:57:52.746Z,100.00
2023-01-17T23:00:21.366Z,100.00
2023-01-17T23:02:49.659Z,100.00
2023-01-17T23:05:20.361Z,100.00
2023-01-17T23:07:51.056Z,100.00
2023-01-17T23:10:33.294Z,100.00
2023-01-17T23:13:01.625Z,100.00
2023-01-17T23:15:47.399Z,100.00
2023-01-17T23:18:32.897Z,100.00
2023-01-17T23:21:02.612Z,100.00
2023-01-17T23:23:30.869Z,100.00
2023-01-17T23:26:01.551Z,100.00
2023-01-17T23:28:28.764Z,100.00
2023-01-17T23:31:03.211Z,100.00
2023-01-17T23:33:31.518Z,100.00
2023-01-17T23:35:59.801Z,100.00
2023-01-17T23:38:34.201Z,100.00
2023-01-17T23:41:21.197Z,100.00
2023-01-17T23:43:53.602Z,100.00
2023-01-17T23:46:22.387Z,100.00
2023-01-17T23:48:50.654Z,100.00
2023-01-17T23:51:19.063Z,100.00
2023-01-17T23:53:48.667Z,100.00
2023-01-17T23:56:19.688Z,100.00
2023-01-17T23:58:47.950Z,100.00
